createdAt,value
2024-01-24T00:00:02.872Z,7.28
2024-01-24T00:00:16.531Z,7.93
2024-01-24T00:00:50.104Z,7.47
2024-01-24T00:01:23.017Z,7.40
2024-01-24T00:01:37.400Z,7.28
2024-01-24T00:01:50.334Z,6.97
2024-01-24T00:02:03.246Z,7.05
2024-01-24T00:02:16.104Z,7.32
2024-01-24T00:02:28.963Z,7.05
2024-01-24T00:02:41.922Z,6.43
2024-01-24T00:02:54.814Z,6.40
2024-01-24T00:03:07.809Z,6.35
2024-01-24T00:03:20.987Z,6.55
2024-01-24T00:03:35.342Z,7.13
2024-01-24T00:03:49.768Z,7.22
2024-01-24T00:04:03.102Z,6.72
2024-01-24T00:04:16.082Z,6.57
2024-01-24T00:04:29.367Z,6.80
2024-01-24T00:04:42.482Z,6.88
2024-01-24T00:04:55.320Z,6.60
2024-01-24T00:05:09.129Z,6.15
2024-01-24T00:05:22.060Z,6.30
2024-01-24T00:05:35.923Z,6.60
2024-01-24T00:05:48.877Z,6.57
2024-01-24T00:06:01.913Z,6.32
2024-01-24T00:06:14.932Z,6.35
2024-01-24T00:06:28.141Z,6.50
2024-01-24T00:06:41.051Z,6.38
2024-01-24T00:06:54.061Z,6.43
2024-01-24T00:07:07.318Z,6.72
2024-01-24T00:07:20.170Z,6.88
2024-01-24T00:07:32.985Z,7.00
2024-01-24T00:07:45.847Z,6.85
2024-01-24T00:07:59.751Z,6.53
2024-01-24T00:08:12.936Z,6.30
2024-01-24T00:08:25.855Z,6.68
2024-01-24T00:08:38.954Z,6.90
2024-01-24T00:08:52.280Z,7.22
2024-01-24T00:09:05.881Z,7.25
2024-01-24T00:09:18.867Z,7.03
2024-01-24T00:09:32.708Z,6.85
2024-01-24T00:09:45.749Z,7.05
2024-01-24T00:09:58.615Z,6.80
2024-01-24T00:10:13.539Z,6.80
2024-01-24T00:10:26.426Z,6.85
2024-01-24T00:10:39.712Z,7.30
2024-01-24T00:10:52.876Z,7.72
2024-01-24T00:11:05.981Z,7.40
2024-01-24T00:11:19.101Z,7.28
2024-01-24T00:11:32.118Z,7.55
2024-01-24T00:11:44.973Z,7.47
2024-01-24T00:11:58.159Z,7.38
2024-01-24T00:12:12.209Z,7.60
2024-01-24T00:12:25.352Z,7.80
2024-01-24T00:12:38.363Z,7.50
2024-01-24T00:12:51.678Z,7.32
2024-01-24T00:13:05.088Z,7.65
2024-01-24T00:13:18.041Z,7.70
2024-01-24T00:13:31.018Z,7.50
2024-01-24T00:13:43.968Z,7.15
2024-01-24T00:13:57.887Z,6.85
2024-01-24T00:14:11.864Z,7.07
2024-01-24T00:14:24.772Z,7.30
2024-01-24T00:14:37.926Z,7.60
2024-01-24T00:14:50.853Z,8.02
2024-01-24T00:15:04.030Z,7.68
2024-01-24T00:15:16.984Z,7.05
2024-01-24T00:15:30.220Z,7.75
2024-01-24T00:15:44.184Z,7.68
2024-01-24T00:15:57.111Z,7.20
2024-01-24T00:16:10.681Z,7.10
2024-01-24T00:16:23.956Z,7.18
2024-01-24T00:16:36.918Z,7.55
2024-01-24T00:16:49.801Z,7.47
2024-01-24T00:17:03.737Z,7.43
2024-01-24T00:17:16.782Z,7.65
2024-01-24T00:17:31.102Z,7.55
2024-01-24T00:17:44.076Z,7.30
2024-01-24T00:17:57.034Z,7.25
2024-01-24T00:18:10.338Z,7.30
2024-01-24T00:18:23.420Z,7.35
2024-01-24T00:18:37.801Z,7.47
2024-01-24T00:18:51.003Z,7.60
2024-01-24T00:19:04.172Z,7.68
2024-01-24T00:19:17.284Z,7.65
2024-01-24T00:19:30.452Z,7.68
2024-01-24T00:19:44.561Z,7.25
2024-01-24T00:19:57.456Z,7.32
2024-01-24T00:20:13.912Z,7.75
2024-01-24T00:20:26.996Z,8.07
2024-01-24T00:20:40.025Z,7.90
2024-01-24T00:20:54.447Z,7.80
2024-01-24T00:21:07.612Z,8.00
2024-01-24T00:21:20.688Z,8.20
2024-01-24T00:21:34.588Z,8.75
2024-01-24T00:21:47.505Z,8.77
2024-01-24T00:22:00.477Z,8.63
2024-01-24T00:22:15.549Z,8.50
2024-01-24T00:22:29.364Z,8.52
2024-01-24T00:22:42.318Z,8.82
2024-01-24T00:22:55.206Z,8.38
2024-01-24T00:23:08.067Z,8.45
2024-01-24T00:23:20.920Z,8.73
2024-01-24T00:23:34.825Z,8.90
2024-01-24T00:23:48.391Z,9.05
2024-01-24T00:24:01.221Z,9.07
2024-01-24T00:24:14.099Z,9.10
2024-01-24T00:24:27.394Z,8.95
2024-01-24T00:24:40.324Z,8.45
2024-01-24T00:24:53.295Z,8.30
2024-01-24T00:25:06.456Z,8.57
2024-01-24T00:25:20.352Z,8.52
2024-01-24T00:25:33.387Z,8.40
2024-01-24T00:25:46.271Z,8.20
2024-01-24T00:25:59.143Z,8.52
2024-01-24T00:26:12.168Z,8.88
2024-01-24T00:26:25.050Z,9.35
2024-01-24T00:26:39.169Z,9.10
2024-01-24T00:26:52.064Z,8.68
2024-01-24T00:27:06.524Z,8.38
2024-01-24T00:27:20.630Z,8.10
2024-01-24T00:27:33.661Z,7.95
2024-01-24T00:27:46.807Z,8.30
2024-01-24T00:27:59.743Z,8.48
2024-01-24T00:28:16.461Z,8.25
2024-01-24T00:28:31.020Z,8.05
2024-01-24T00:28:45.109Z,7.85
2024-01-24T00:28:59.007Z,8.10
2024-01-24T00:29:12.463Z,8.10
2024-01-24T00:29:25.341Z,8.05
2024-01-24T00:29:38.165Z,8.38
2024-01-24T00:29:51.029Z,8.40
2024-01-24T00:30:05.282Z,8.15
2024-01-24T00:30:18.364Z,8.05
2024-01-24T00:30:31.405Z,8.15
2024-01-24T00:30:46.038Z,8.32
2024-01-24T00:30:59.004Z,8.40
2024-01-24T00:31:14.477Z,8.25
2024-01-24T00:31:27.302Z,7.72
2024-01-24T00:31:40.523Z,7.47
2024-01-24T00:31:56.773Z,7.70
2024-01-24T00:32:09.697Z,7.88
2024-01-24T00:32:23.991Z,7.90
2024-01-24T00:32:37.086Z,8.25
2024-01-24T00:32:49.995Z,7.90
2024-01-24T00:33:05.896Z,7.75
2024-01-24T00:33:19.206Z,8.15
2024-01-24T00:33:32.302Z,8.13
2024-01-24T00:33:46.855Z,8.05
2024-01-24T00:34:00.141Z,7.65
2024-01-24T00:34:14.132Z,8.05
2024-01-24T00:34:27.093Z,8.10
2024-01-24T00:34:41.098Z,7.95
2024-01-24T00:34:54.103Z,7.88
2024-01-24T00:35:07.486Z,7.75
2024-01-24T00:35:20.703Z,7.55
2024-01-24T00:35:33.544Z,7.75
2024-01-24T00:35:47.818Z,7.43
2024-01-24T00:36:00.699Z,7.55
2024-01-24T00:36:13.632Z,8.18
2024-01-24T00:36:27.187Z,8.27
2024-01-24T00:36:40.432Z,7.90
2024-01-24T00:36:53.400Z,7.60
2024-01-24T00:37:06.284Z,7.50
2024-01-24T00:37:19.152Z,7.35
2024-01-24T00:37:32.376Z,7.25
2024-01-24T00:37:46.351Z,7.55
2024-01-24T00:37:59.317Z,7.75
2024-01-24T00:38:12.245Z,7.93
2024-01-24T00:38:25.169Z,8.13
2024-01-24T00:38:37.992Z,8.10
2024-01-24T00:38:51.209Z,8.57
2024-01-24T00:39:04.627Z,8.60
2024-01-24T00:39:18.356Z,8.05
2024-01-24T00:39:32.242Z,7.88
2024-01-24T00:39:48.054Z,8.18
2024-01-24T00:40:01.104Z,8.18
2024-01-24T00:40:14.208Z,7.90
2024-01-24T00:40:27.603Z,8.05
2024-01-24T00:40:40.503Z,8.15
2024-01-24T00:40:53.398Z,8.23
2024-01-24T00:41:06.272Z,8.23
2024-01-24T00:41:20.129Z,8.23
2024-01-24T00:41:32.996Z,8.43
2024-01-24T00:41:48.448Z,8.35
2024-01-24T00:42:01.891Z,8.30
2024-01-24T00:42:14.834Z,8.55
2024-01-24T00:42:28.479Z,8.93
2024-01-24T00:42:44.275Z,9.02
2024-01-24T00:42:58.342Z,8.93
2024-01-24T00:43:11.374Z,9.13
2024-01-24T00:43:24.550Z,9.70
2024-01-24T00:43:37.482Z,9.60
2024-01-24T00:43:50.385Z,9.55
2024-01-24T00:44:03.385Z,9.32
2024-01-24T00:44:16.331Z,9.18
2024-01-24T00:44:29.543Z,9.40
2024-01-24T00:44:44.722Z,8.98
2024-01-24T00:44:57.580Z,8.57
2024-01-24T00:45:12.828Z,8.85
2024-01-24T00:45:26.882Z,9.00
2024-01-24T00:45:39.927Z,9.27
2024-01-24T00:45:52.866Z,9.20
2024-01-24T00:46:06.337Z,8.93
2024-01-24T00:46:19.646Z,8.77
2024-01-24T00:46:32.546Z,9.15
2024-01-24T00:46:45.381Z,9.65
2024-01-24T00:46:59.348Z,9.60
2024-01-24T00:47:12.289Z,9.73
2024-01-24T00:47:25.245Z,9.45
2024-01-24T00:47:38.165Z,9.00
2024-01-24T00:47:51.128Z,9.10
2024-01-24T00:48:04.769Z,9.00
2024-01-24T00:48:18.247Z,8.93
2024-01-24T00:48:31.186Z,9.30
2024-01-24T00:48:44.252Z,9.35
2024-01-24T00:48:59.623Z,9.25
2024-01-24T00:49:14.034Z,9.27
2024-01-24T00:49:27.771Z,9.20
2024-01-24T00:49:40.814Z,8.82
2024-01-24T00:49:53.980Z,8.68
2024-01-24T00:50:08.198Z,9.48
2024-01-24T00:50:21.088Z,9.32
2024-01-24T00:50:35.891Z,8.80
2024-01-24T00:50:48.763Z,8.90
2024-01-24T00:51:02.641Z,8.93
2024-01-24T00:51:15.816Z,9.00
2024-01-24T00:51:28.725Z,9.15
2024-01-24T00:51:41.657Z,9.20
2024-01-24T00:51:54.530Z,9.30
2024-01-24T00:52:07.380Z,9.35
2024-01-24T00:52:21.275Z,9.60
2024-01-24T00:52:34.716Z,9.88
2024-01-24T00:52:53.081Z,9.75
2024-01-24T00:53:07.649Z,9.27
2024-01-24T00:53:23.653Z,9.35
2024-01-24T00:53:38.995Z,9.32
2024-01-24T00:53:53.221Z,9.30
2024-01-24T00:54:06.701Z,9.50
2024-01-24T00:54:19.637Z,9.52
2024-01-24T00:54:32.546Z,9.15
2024-01-24T00:54:45.489Z,8.85
2024-01-24T00:54:58.402Z,9.10
2024-01-24T00:55:11.712Z,9.50
2024-01-24T00:55:28.319Z,9.85
2024-01-24T00:55:41.375Z,10.00
2024-01-24T00:55:54.219Z,9.68
2024-01-24T00:56:07.435Z,9.50
2024-01-24T00:56:20.331Z,9.45
2024-01-24T00:56:33.230Z,9.40
2024-01-24T00:56:46.512Z,9.73
2024-01-24T00:56:59.469Z,9.60
2024-01-24T00:57:12.642Z,9.75
2024-01-24T00:57:25.575Z,9.30
2024-01-24T00:57:38.483Z,9.18
2024-01-24T00:57:52.478Z,9.23
2024-01-24T00:58:05.343Z,9.18
2024-01-24T00:58:18.793Z,9.40
2024-01-24T00:58:31.623Z,9.50
2024-01-24T00:58:44.618Z,9.70
2024-01-24T00:58:57.454Z,9.55
2024-01-24T00:59:10.413Z,9.80
2024-01-24T00:59:23.790Z,9.70
2024-01-24T00:59:37.727Z,9.75
2024-01-24T00:59:50.591Z,9.60
2024-01-24T01:00:05.371Z,9.27
2024-01-24T01:00:18.895Z,9.32
2024-01-24T01:00:31.880Z,9.10
2024-01-24T01:00:44.881Z,8.90
2024-01-24T01:00:57.950Z,8.77
2024-01-24T01:01:11.612Z,8.74
2024-01-24T01:01:24.606Z,8.85
2024-01-24T01:01:38.498Z,9.02
2024-01-24T01:01:51.736Z,9.02
2024-01-24T01:02:04.912Z,8.65
2024-01-24T01:02:18.223Z,8.75
2024-01-24T01:02:31.064Z,8.82
2024-01-24T01:02:44.451Z,8.65
2024-01-24T01:02:57.344Z,8.70
2024-01-24T01:03:10.507Z,9.15
2024-01-24T01:03:24.560Z,9.80
2024-01-24T01:03:38.338Z,9.57
2024-01-24T01:03:51.635Z,9.23
2024-01-24T01:04:06.096Z,9.43
2024-01-24T01:04:19.261Z,9.48
2024-01-24T01:04:32.248Z,9.40
2024-01-24T01:04:45.150Z,8.93
2024-01-24T01:04:58.062Z,8.90
2024-01-24T01:05:12.163Z,9.27
2024-01-24T01:05:26.232Z,9.30
2024-01-24T01:05:39.321Z,9.05
2024-01-24T01:05:52.287Z,8.88
2024-01-24T01:06:05.921Z,8.75
2024-01-24T01:06:18.812Z,8.88
2024-01-24T01:06:31.718Z,9.18
2024-01-24T01:06:44.980Z,9.45
2024-01-24T01:06:58.032Z,9.02
2024-01-24T01:07:11.196Z,8.85
2024-01-24T01:07:25.394Z,8.95
2024-01-24T01:07:38.297Z,9.23
2024-01-24T01:07:51.225Z,9.43
2024-01-24T01:08:04.914Z,9.00
2024-01-24T01:08:18.088Z,8.95
2024-01-24T01:08:30.932Z,8.98
2024-01-24T01:08:44.153Z,9.23
2024-01-24T01:08:57.039Z,8.93
2024-01-24T01:09:10.009Z,8.40
2024-01-24T01:09:24.045Z,8.80
2024-01-24T01:09:37.360Z,9.02
2024-01-24T01:09:50.309Z,9.13
2024-01-24T01:10:04.186Z,9.13
2024-01-24T01:10:17.245Z,9.07
2024-01-24T01:10:30.240Z,9.27
2024-01-24T01:10:43.569Z,9.13
2024-01-24T01:10:57.416Z,8.77
2024-01-24T01:11:10.313Z,8.80
2024-01-24T01:11:23.258Z,8.98
2024-01-24T01:11:36.108Z,9.20
2024-01-24T01:11:49.005Z,9.43
2024-01-24T01:12:01.955Z,8.77
2024-01-24T01:12:14.918Z,8.38
2024-01-24T01:12:27.914Z,8.73
2024-01-24T01:12:40.837Z,8.93
2024-01-24T01:12:55.153Z,9.00
2024-01-24T01:13:08.226Z,8.70
2024-01-24T01:13:21.136Z,8.38
2024-01-24T01:13:34.419Z,8.27
2024-01-24T01:13:47.394Z,8.35
2024-01-24T01:14:00.593Z,8.23
2024-01-24T01:14:13.572Z,8.63
2024-01-24T01:14:26.472Z,8.98
2024-01-24T01:14:39.327Z,8.65
2024-01-24T01:14:52.279Z,8.77
2024-01-24T01:15:07.364Z,9.07
2024-01-24T01:15:20.339Z,8.85
2024-01-24T01:15:33.355Z,8.15
2024-01-24T01:15:46.361Z,8.18
2024-01-24T01:15:59.336Z,8.57
2024-01-24T01:16:12.198Z,8.35
2024-01-24T01:16:25.065Z,8.48
2024-01-24T01:16:37.958Z,8.70
2024-01-24T01:16:51.003Z,8.63
2024-01-24T01:17:04.144Z,8.98
2024-01-24T01:17:18.010Z,9.13
2024-01-24T01:17:31.198Z,8.68
2024-01-24T01:17:44.138Z,8.52
2024-01-24T01:17:57.020Z,8.15
2024-01-24T01:18:10.073Z,8.20
2024-01-24T01:18:23.089Z,8.40
2024-01-24T01:18:36.422Z,8.50
2024-01-24T01:18:50.359Z,8.38
2024-01-24T01:19:03.387Z,8.50
2024-01-24T01:19:17.987Z,8.65
2024-01-24T01:19:30.920Z,8.40
2024-01-24T01:19:43.783Z,8.27
2024-01-24T01:19:56.729Z,8.57
2024-01-24T01:20:10.772Z,8.70
2024-01-24T01:20:23.679Z,8.50
2024-01-24T01:20:36.577Z,8.52
2024-01-24T01:20:49.721Z,8.30
2024-01-24T01:21:03.608Z,8.00
2024-01-24T01:21:16.545Z,7.80
2024-01-24T01:21:29.536Z,7.93
2024-01-24T01:21:42.622Z,8.35
2024-01-24T01:21:55.594Z,8.68
2024-01-24T01:22:08.804Z,8.43
2024-01-24T01:22:21.948Z,8.20
2024-01-24T01:22:34.853Z,8.45
2024-01-24T01:22:48.022Z,8.88
2024-01-24T01:23:01.951Z,8.45
2024-01-24T01:23:14.826Z,8.30
2024-01-24T01:23:27.736Z,8.05
2024-01-24T01:23:41.235Z,7.85
2024-01-24T01:23:54.096Z,7.82
2024-01-24T01:24:07.141Z,7.95
2024-01-24T01:24:20.590Z,7.80
2024-01-24T01:24:33.555Z,8.10
2024-01-24T01:24:46.569Z,8.07
2024-01-24T01:25:00.933Z,7.95
2024-01-24T01:25:14.168Z,8.10
2024-01-24T01:25:27.394Z,8.55
2024-01-24T01:25:40.283Z,8.15
2024-01-24T01:25:53.818Z,7.95
2024-01-24T01:26:06.735Z,8.30
2024-01-24T01:26:20.434Z,7.90
2024-01-24T01:26:33.597Z,8.07
2024-01-24T01:26:47.608Z,8.27
2024-01-24T01:27:00.554Z,8.43
2024-01-24T01:27:13.756Z,8.38
2024-01-24T01:27:27.029Z,8.10
2024-01-24T01:27:40.186Z,8.20
2024-01-24T01:27:53.294Z,8.18
2024-01-24T01:28:06.984Z,8.10
2024-01-24T01:28:19.933Z,8.23
2024-01-24T01:28:32.776Z,8.50
2024-01-24T01:28:46.774Z,8.38
2024-01-24T01:28:59.745Z,8.00
2024-01-24T01:29:12.753Z,7.85
2024-01-24T01:29:25.661Z,7.80
2024-01-24T01:29:38.687Z,7.72
2024-01-24T01:29:51.546Z,7.85
2024-01-24T01:30:05.194Z,8.13
2024-01-24T01:30:18.409Z,7.72
2024-01-24T01:30:32.082Z,7.38
2024-01-24T01:30:46.527Z,7.53
2024-01-24T01:30:59.733Z,7.60
2024-01-24T01:31:12.603Z,7.50
2024-01-24T01:31:25.779Z,7.40
2024-01-24T01:31:38.705Z,7.60
2024-01-24T01:31:51.534Z,8.00
2024-01-24T01:32:05.040Z,8.05
2024-01-24T01:32:31.303Z,7.38
2024-01-24T01:32:45.585Z,6.97
2024-01-24T01:32:58.501Z,7.20
2024-01-24T01:33:11.610Z,7.65
2024-01-24T01:33:24.751Z,7.68
2024-01-24T01:33:37.931Z,7.50
2024-01-24T01:33:51.019Z,7.22
2024-01-24T01:34:05.497Z,7.28
2024-01-24T01:34:19.825Z,7.35
2024-01-24T01:34:34.076Z,7.75
2024-01-24T01:34:47.243Z,7.72
2024-01-24T01:35:01.124Z,7.50
2024-01-24T01:35:15.047Z,7.47
2024-01-24T01:35:28.136Z,7.13
2024-01-24T01:35:41.214Z,6.88
2024-01-24T01:35:57.909Z,7.20
2024-01-24T01:36:23.375Z,7.47
2024-01-24T01:36:36.800Z,7.28
2024-01-24T01:36:49.732Z,7.10
2024-01-24T01:37:02.737Z,7.22
2024-01-24T01:37:15.676Z,7.50
2024-01-24T01:37:28.544Z,7.45
2024-01-24T01:37:41.799Z,7.28
2024-01-24T01:37:54.687Z,7.40
2024-01-24T01:38:07.585Z,7.64
2024-01-24T01:38:21.744Z,7.53
2024-01-24T01:38:34.618Z,7.50
2024-01-24T01:38:47.691Z,7.45
2024-01-24T01:39:00.606Z,7.47
2024-01-24T01:39:13.837Z,7.25
2024-01-24T01:39:26.739Z,6.97
2024-01-24T01:39:39.689Z,7.30
2024-01-24T01:39:53.315Z,7.57
2024-01-24T01:40:08.153Z,7.50
2024-01-24T01:40:22.468Z,7.15
2024-01-24T01:40:35.447Z,7.18
2024-01-24T01:40:48.399Z,7.50
2024-01-24T01:41:01.261Z,7.60
2024-01-24T01:41:14.263Z,7.35
2024-01-24T01:41:27.135Z,7.25
2024-01-24T01:41:40.413Z,7.80
2024-01-24T01:41:53.636Z,7.65
2024-01-24T01:42:06.509Z,7.22
2024-01-24T01:42:20.469Z,7.45
2024-01-24T01:42:34.012Z,7.95
2024-01-24T01:42:47.084Z,7.85
2024-01-24T01:43:00.025Z,7.97
2024-01-24T01:43:15.004Z,7.75
2024-01-24T01:43:27.909Z,7.60
2024-01-24T01:43:40.778Z,7.78
2024-01-24T01:43:53.576Z,7.93
2024-01-24T01:44:07.911Z,7.57
2024-01-24T01:44:20.852Z,7.20
2024-01-24T01:44:36.929Z,7.47
2024-01-24T01:44:50.071Z,7.03
2024-01-24T01:45:04.888Z,6.85
2024-01-24T01:45:18.059Z,7.05
2024-01-24T01:45:31.439Z,7.20
2024-01-24T01:45:44.590Z,7.35
2024-01-24T01:46:05.975Z,7.40
2024-01-24T01:46:19.772Z,7.43
2024-01-24T01:46:33.253Z,7.38
2024-01-24T01:46:46.382Z,7.28
2024-01-24T01:46:59.319Z,7.35
2024-01-24T01:47:13.436Z,7.55
2024-01-24T01:47:26.419Z,7.30
2024-01-24T01:47:40.696Z,7.13
2024-01-24T01:47:53.744Z,7.00
2024-01-24T01:48:08.733Z,6.88
2024-01-24T01:48:22.113Z,6.75
2024-01-24T01:48:35.981Z,7.15
2024-01-24T01:48:51.397Z,7.65
2024-01-24T01:49:05.799Z,7.38
2024-01-24T01:49:21.260Z,7.15
2024-01-24T01:49:34.459Z,7.18
2024-01-24T01:49:48.828Z,7.40
2024-01-24T01:50:01.917Z,7.22
2024-01-24T01:50:16.009Z,6.93
2024-01-24T01:50:29.290Z,6.90
2024-01-24T01:50:42.294Z,7.13
2024-01-24T01:50:56.000Z,7.20
2024-01-24T01:51:09.044Z,6.93
2024-01-24T01:51:22.156Z,7.22
2024-01-24T01:51:35.797Z,7.20
2024-01-24T01:51:50.119Z,7.45
2024-01-24T01:52:03.131Z,7.25
2024-01-24T01:52:17.437Z,7.25
2024-01-24T01:52:31.965Z,7.30
2024-01-24T01:52:46.036Z,6.95
2024-01-24T01:53:00.034Z,6.80
2024-01-24T01:53:13.000Z,6.97
2024-01-24T01:53:27.056Z,6.80
2024-01-24T01:53:40.477Z,6.82
2024-01-24T01:53:53.967Z,6.93
2024-01-24T01:54:09.018Z,6.95
2024-01-24T01:54:22.122Z,7.00
2024-01-24T01:54:35.302Z,7.22
2024-01-24T01:54:49.359Z,7.22
2024-01-24T01:55:02.482Z,7.15
2024-01-24T01:55:17.123Z,7.32
2024-01-24T01:55:31.073Z,7.28
2024-01-24T01:55:44.305Z,6.90
2024-01-24T01:55:58.516Z,7.20
2024-01-24T01:56:13.686Z,7.28
2024-01-24T01:56:27.092Z,7.05
2024-01-24T01:56:40.151Z,7.15
2024-01-24T01:56:53.305Z,6.97
2024-01-24T01:57:09.785Z,7.25
2024-01-24T01:57:24.031Z,7.40
2024-01-24T01:57:39.380Z,6.75
2024-01-24T01:57:52.744Z,6.65
2024-01-24T01:58:05.929Z,7.03
2024-01-24T01:58:18.832Z,6.90
2024-01-24T01:58:31.865Z,7.05
2024-01-24T01:58:45.580Z,7.30
2024-01-24T01:58:59.275Z,7.00
2024-01-24T01:59:12.775Z,6.35
2024-01-24T01:59:28.211Z,6.50
2024-01-24T01:59:42.084Z,6.90
2024-01-24T01:59:55.202Z,7.20
2024-01-24T02:00:11.417Z,7.25
2024-01-24T02:00:25.149Z,7.50
2024-01-24T02:00:39.178Z,7.47
2024-01-24T02:00:52.469Z,7.00
2024-01-24T02:01:10.477Z,7.10
2024-01-24T02:01:25.114Z,7.28
2024-01-24T02:01:40.101Z,7.47
2024-01-24T02:01:55.148Z,7.38
2024-01-24T02:02:08.533Z,7.03
2024-01-24T02:02:21.409Z,6.80
2024-01-24T02:02:34.354Z,6.88
2024-01-24T02:02:47.705Z,7.05
2024-01-24T02:03:01.769Z,7.00
2024-01-24T02:03:14.913Z,7.30
2024-01-24T02:03:28.928Z,7.43
2024-01-24T02:03:43.764Z,7.65
2024-01-24T02:03:56.826Z,7.43
2024-01-24T02:04:09.832Z,7.35
2024-01-24T02:04:24.783Z,7.22
2024-01-24T02:04:38.014Z,7.03
2024-01-24T02:04:50.986Z,7.30
2024-01-24T02:05:04.770Z,7.15
2024-01-24T02:05:18.160Z,7.13
2024-01-24T02:05:31.666Z,7.28
2024-01-24T02:05:47.324Z,7.25
2024-01-24T02:06:01.372Z,7.25
2024-01-24T02:06:14.517Z,7.55
2024-01-24T02:06:27.968Z,7.88
2024-01-24T02:06:41.294Z,7.47
2024-01-24T02:06:56.823Z,7.32
2024-01-24T02:07:09.901Z,7.53
2024-01-24T02:07:24.045Z,7.38
2024-01-24T02:07:37.074Z,7.05
2024-01-24T02:07:50.182Z,6.97
2024-01-24T02:08:03.800Z,6.78
2024-01-24T02:08:16.863Z,6.82
2024-01-24T02:08:29.900Z,7.15
2024-01-24T02:08:44.311Z,7.20
2024-01-24T02:08:57.162Z,7.13
2024-01-24T02:09:11.731Z,7.40
2024-01-24T02:09:25.079Z,7.65
2024-01-24T02:09:38.198Z,7.32
2024-01-24T02:09:51.363Z,7.25
2024-01-24T02:10:05.124Z,7.18
2024-01-24T02:10:18.261Z,6.78
2024-01-24T02:10:31.518Z,6.57
2024-01-24T02:10:45.597Z,6.55
2024-01-24T02:10:59.439Z,6.90
2024-01-24T02:11:13.451Z,7.03
2024-01-24T02:11:26.368Z,6.75
2024-01-24T02:11:40.326Z,6.85
2024-01-24T02:11:53.296Z,6.93
2024-01-24T02:12:06.594Z,6.65
2024-01-24T02:12:19.999Z,6.58
2024-01-24T02:12:32.949Z,6.43
2024-01-24T02:12:45.909Z,6.72
2024-01-24T02:13:00.503Z,6.93
2024-01-24T02:13:13.447Z,7.20
2024-01-24T02:13:29.281Z,7.03
2024-01-24T02:13:42.565Z,7.18
2024-01-24T02:14:00.189Z,6.97
2024-01-24T02:14:13.646Z,6.50
2024-01-24T02:14:26.673Z,6.80
2024-01-24T02:14:40.563Z,6.72
2024-01-24T02:14:53.407Z,6.63
2024-01-24T02:15:07.545Z,6.90
2024-01-24T02:15:21.060Z,7.20
2024-01-24T02:15:34.063Z,7.25
2024-01-24T02:15:47.027Z,7.35
2024-01-24T02:16:00.132Z,6.97
2024-01-24T02:16:18.162Z,6.93
2024-01-24T02:16:34.308Z,6.90
2024-01-24T02:16:47.286Z,7.30
2024-01-24T02:17:00.581Z,7.25
2024-01-24T02:17:13.559Z,7.10
2024-01-24T02:17:26.649Z,6.82
2024-01-24T02:17:39.679Z,6.70
2024-01-24T02:17:52.595Z,6.80
2024-01-24T02:18:07.184Z,6.80
2024-01-24T02:18:20.171Z,6.82
2024-01-24T02:18:34.190Z,7.05
2024-01-24T02:18:47.260Z,6.85
2024-01-24T02:19:00.391Z,6.55
2024-01-24T02:19:13.443Z,6.60
2024-01-24T02:19:28.816Z,6.88
2024-01-24T02:19:42.029Z,6.78
2024-01-24T02:19:54.982Z,7.22
2024-01-24T02:20:11.193Z,7.13
2024-01-24T02:20:25.394Z,6.95
2024-01-24T02:20:40.182Z,7.15
2024-01-24T02:20:53.578Z,7.03
2024-01-24T02:21:06.701Z,6.97
2024-01-24T02:21:19.729Z,6.97
2024-01-24T02:21:32.693Z,6.65
2024-01-24T02:21:45.663Z,6.30
2024-01-24T02:21:58.793Z,6.38
2024-01-24T02:22:11.937Z,6.53
2024-01-24T02:22:24.856Z,6.50
2024-01-24T02:22:38.900Z,6.57
2024-01-24T02:22:51.932Z,6.57
2024-01-24T02:23:05.189Z,6.50
2024-01-24T02:23:19.631Z,6.50
2024-01-24T02:23:33.001Z,6.70
2024-01-24T02:23:47.565Z,6.50
2024-01-24T02:24:01.554Z,6.32
2024-01-24T02:24:15.930Z,6.57
2024-01-24T02:24:29.684Z,6.85
2024-01-24T02:24:43.882Z,6.70
2024-01-24T02:24:56.938Z,6.35
2024-01-24T02:25:10.073Z,6.95
2024-01-24T02:25:22.997Z,7.13
2024-01-24T02:25:35.918Z,7.35
2024-01-24T02:25:50.717Z,6.93
2024-01-24T02:26:05.512Z,6.68
2024-01-24T02:26:18.463Z,6.85
2024-01-24T02:26:31.371Z,6.60
2024-01-24T02:26:45.611Z,6.78
2024-01-24T02:26:58.609Z,6.63
2024-01-24T02:27:11.879Z,6.45
2024-01-24T02:27:24.911Z,6.47
2024-01-24T02:27:37.831Z,6.45
2024-01-24T02:27:51.213Z,6.65
2024-01-24T02:28:04.635Z,7.00
2024-01-24T02:28:17.836Z,6.65
2024-01-24T02:28:30.740Z,6.22
2024-01-24T02:28:44.841Z,6.45
2024-01-24T02:28:57.763Z,6.30
2024-01-24T02:29:10.678Z,6.43
2024-01-24T02:29:23.597Z,6.68
2024-01-24T02:29:36.491Z,7.30
2024-01-24T02:29:49.641Z,6.85
2024-01-24T02:30:02.609Z,6.75
2024-01-24T02:30:15.745Z,6.88
2024-01-24T02:30:28.853Z,6.82
2024-01-24T02:30:41.891Z,6.65
2024-01-24T02:30:55.893Z,6.50
2024-01-24T02:31:10.489Z,6.55
2024-01-24T02:31:23.737Z,6.40
2024-01-24T02:31:36.656Z,6.28
2024-01-24T02:31:49.591Z,6.43
2024-01-24T02:32:02.742Z,6.57
2024-01-24T02:32:15.633Z,6.38
2024-01-24T02:32:28.615Z,6.50
2024-01-24T02:32:42.058Z,6.53
2024-01-24T02:32:57.761Z,6.57
2024-01-24T02:33:10.912Z,6.32
2024-01-24T02:33:23.944Z,6.25
2024-01-24T02:33:36.987Z,6.65
2024-01-24T02:33:50.022Z,6.70
2024-01-24T02:34:03.129Z,6.97
2024-01-24T02:34:16.148Z,6.60
2024-01-24T02:34:29.455Z,6.25
2024-01-24T02:34:44.539Z,6.25
2024-01-24T02:34:57.821Z,6.53
2024-01-24T02:35:10.750Z,6.85
2024-01-24T02:35:25.756Z,7.05
2024-01-24T02:35:38.673Z,6.55
2024-01-24T02:35:51.585Z,6.38
2024-01-24T02:36:05.339Z,6.43
2024-01-24T02:36:18.354Z,6.22
2024-01-24T02:36:32.303Z,6.13
2024-01-24T02:36:45.239Z,6.28
2024-01-24T02:36:58.230Z,6.22
2024-01-24T02:37:11.334Z,6.45
2024-01-24T02:37:24.253Z,6.30
2024-01-24T02:37:38.545Z,6.53
2024-01-24T02:37:51.456Z,6.53
2024-01-24T02:38:04.788Z,6.35
2024-01-24T02:38:18.746Z,6.45
2024-01-24T02:38:31.943Z,6.43
2024-01-24T02:38:45.034Z,6.20
2024-01-24T02:38:58.985Z,6.00
2024-01-24T02:39:12.681Z,6.10
2024-01-24T02:39:27.244Z,6.28
2024-01-24T02:39:40.370Z,5.93
2024-01-24T02:39:54.385Z,5.97
2024-01-24T02:40:09.021Z,6.18
2024-01-24T02:40:22.673Z,6.28
2024-01-24T02:40:35.551Z,6.13
2024-01-24T02:40:48.445Z,6.10
2024-01-24T02:41:01.352Z,6.20
2024-01-24T02:41:14.348Z,6.05
2024-01-24T02:41:28.185Z,5.90
2024-01-24T02:41:41.825Z,5.97
2024-01-24T02:41:54.965Z,6.07
2024-01-24T02:42:08.975Z,6.43
2024-01-24T02:42:21.866Z,6.20
2024-01-24T02:42:35.119Z,5.90
2024-01-24T02:42:48.089Z,6.15
2024-01-24T02:43:01.408Z,6.25
2024-01-24T02:43:14.721Z,6.68
2024-01-24T02:43:27.610Z,6.45
2024-01-24T02:43:40.521Z,6.63
2024-01-24T02:43:54.710Z,6.75
2024-01-24T02:44:07.585Z,6.28
2024-01-24T02:44:20.485Z,6.07
2024-01-24T02:44:33.369Z,6.38
2024-01-24T02:44:46.395Z,6.22
2024-01-24T02:44:59.632Z,6.03
2024-01-24T02:45:12.664Z,5.85
2024-01-24T02:45:26.124Z,6.40
2024-01-24T02:45:39.366Z,6.43
2024-01-24T02:45:54.039Z,6.38
2024-01-24T02:46:11.295Z,6.28
2024-01-24T02:46:24.355Z,6.10
2024-01-24T02:46:37.278Z,5.97
2024-01-24T02:46:50.175Z,6.20
2024-01-24T02:47:03.125Z,6.40
2024-01-24T02:47:16.068Z,6.40
2024-01-24T02:47:30.189Z,6.38
2024-01-24T02:47:43.144Z,6.72
2024-01-24T02:47:56.673Z,6.68
2024-01-24T02:48:09.787Z,6.03
2024-01-24T02:48:22.974Z,6.00
2024-01-24T02:48:36.045Z,6.13
2024-01-24T02:48:48.995Z,6.20
2024-01-24T02:49:02.620Z,6.05
2024-01-24T02:49:17.525Z,6.25
2024-01-24T02:49:30.740Z,6.00
2024-01-24T02:49:43.734Z,5.93
2024-01-24T02:49:58.487Z,5.90
2024-01-24T02:50:14.915Z,5.65
2024-01-24T02:50:28.255Z,6.03
2024-01-24T02:50:41.108Z,6.30
2024-01-24T02:50:54.384Z,6.32
2024-01-24T02:51:08.395Z,6.00
2024-01-24T02:51:25.387Z,5.78
2024-01-24T02:51:38.389Z,5.82
2024-01-24T02:51:51.826Z,6.22
2024-01-24T02:52:05.470Z,6.28
2024-01-24T02:52:18.366Z,6.45
2024-01-24T02:52:32.233Z,6.65
2024-01-24T02:52:46.124Z,6.60
2024-01-24T02:52:58.971Z,6.25
2024-01-24T02:53:11.874Z,6.32
2024-01-24T02:53:24.724Z,6.13
2024-01-24T02:53:37.618Z,6.20
2024-01-24T02:53:50.645Z,6.13
2024-01-24T02:54:03.661Z,5.97
2024-01-24T02:54:16.568Z,6.07
2024-01-24T02:54:32.225Z,6.13
2024-01-24T02:54:45.103Z,6.00
2024-01-24T02:54:58.129Z,6.00
2024-01-24T02:55:16.175Z,6.07
2024-01-24T02:55:30.701Z,5.90
2024-01-24T02:55:43.569Z,5.88
2024-01-24T02:55:56.752Z,5.72
2024-01-24T02:56:10.617Z,5.60
2024-01-24T02:56:23.496Z,5.78
2024-01-24T02:56:37.319Z,5.88
2024-01-24T02:56:50.209Z,5.68
2024-01-24T02:57:03.064Z,5.70
2024-01-24T02:57:16.820Z,5.57
2024-01-24T02:57:29.700Z,5.97
2024-01-24T02:57:42.633Z,5.95
2024-01-24T02:57:55.578Z,5.72
2024-01-24T02:58:08.509Z,5.72
2024-01-24T02:58:22.374Z,5.72
2024-01-24T02:58:35.357Z,5.70
2024-01-24T02:58:48.580Z,5.80
2024-01-24T02:59:01.505Z,5.80
2024-01-24T02:59:14.373Z,5.82
2024-01-24T02:59:27.646Z,5.93
2024-01-24T02:59:40.981Z,5.85
2024-01-24T02:59:53.860Z,5.80
2024-01-24T03:00:08.800Z,5.97
2024-01-24T03:00:22.883Z,6.28
2024-01-24T03:00:35.821Z,6.50